Main page
METAR-TAF:

METAR-TAF

Airports :

Moisés Benzaquén Rengifo Airport

Yurimaguas, Peru

latitude: 05-54S, longitude: 076-05W, elevation: 179 m

Current weather observation

The report was made 58 minutes ago, at 19:00 UTC
Wind 7 kt from the East
Temperature 30°C
Humidity 66%
Pressure 1016 hPa
Visibility 10 km or more
Few clouds at a height of 1500 ft

METAR: SPMS 161900Z 09007KT 9999 FEW015 30/23 Q1016 RMK BIRD HAZARD RWY 09/27 PP000

Time: 14:58 (19:58 UTC)

Forecast

The report was made 2 hours and 58 minutes ago, at 17:00 UTC
Forecast valid from 16 at 18 UTC to 17 at 18 UTC
Wind 3 kt from the East/Southeast
Visibility 10 km or more
Few clouds at a height of 1500 ft

TAF: SPMS 161700Z 1618/1718 12003KT 9999 FEW015 TX32/1620Z TN19/1711Z

Weather observations and forecasts of more than 4000 airports (METAR and TAF reports).

The available stations are represented by yellow and red dots on the map.

Hover mouse over dot to see the name of the station.

Then click to see weather observations and forecasts.

To change the map : click on the green buttons with a black cross to zoom in, on the green button with a dash to zoom out, or on the green arrows for adjacent maps.


METAR-TAF: